sensor_id;sensor_type;location;lat;lon;timestamp;pressure;altitude;pressure_sealevel;temperature;humidity
43071;BME280;36278;47.952;21.714;2023-04-10T00:01:42;100984.63;;;5.63;88.34
43071;BME280;36278;47.952;21.714;2023-04-10T00:04:08;100992.34;;;5.67;86.82
43071;BME280;36278;47.952;21.714;2023-04-10T00:06:34;100988.03;;;5.66;88.13
43071;BME280;36278;47.952;21.714;2023-04-10T00:09:00;100984.63;;;5.63;88.00
43071;BME280;36278;47.952;21.714;2023-04-10T00:11:26;100983.69;;;5.65;87.58
43071;BME280;36278;47.952;21.714;2023-04-10T00:13:52;100986.31;;;5.65;86.04
43071;BME280;36278;47.952;21.714;2023-04-10T00:16:18;100985.25;;;5.69;86.10
43071;BME280;36278;47.952;21.714;2023-04-10T00:18:43;100982.91;;;5.62;85.82
43071;BME280;36278;47.952;21.714;2023-04-10T00:21:09;100982.84;;;5.64;84.66
43071;BME280;36278;47.952;21.714;2023-04-10T00:23:36;100982.84;;;5.64;87.08
43071;BME280;36278;47.952;21.714;2023-04-10T00:26:02;100984.69;;;5.62;87.36
43071;BME280;36278;47.952;21.714;2023-04-10T00:28:27;100977.94;;;5.56;86.78
43071;BME280;36278;47.952;21.714;2023-04-10T00:30:53;100977.84;;;5.58;87.22
43071;BME280;36278;47.952;21.714;2023-04-10T00:33:18;100978.00;;;5.55;87.55
43071;BME280;36278;47.952;21.714;2023-04-10T00:35:43;100975.56;;;5.50;88.35
43071;BME280;36278;47.952;21.714;2023-04-10T00:38:09;100971.16;;;5.51;87.75
43071;BME280;36278;47.952;21.714;2023-04-10T00:40:35;100964.06;;;5.53;87.14
43071;BME280;36278;47.952;21.714;2023-04-10T00:43:00;100964.00;;;5.54;88.12
43071;BME280;36278;47.952;21.714;2023-04-10T00:45:26;100956.25;;;5.51;87.82
43071;BME280;36278;47.952;21.714;2023-04-10T00:47:52;100965.03;;;5.50;87.73
43071;BME280;36278;47.952;21.714;2023-04-10T00:50:19;100971.09;;;5.52;86.91
43071;BME280;36278;47.952;21.714;2023-04-10T00:52:45;100968.47;;;5.52;87.32
43071;BME280;36278;47.952;21.714;2023-04-10T00:55:11;100961.66;;;5.48;88.67
43071;BME280;36278;47.952;21.714;2023-04-10T00:57:36;100963.41;;;5.48;87.28
43071;BME280;36278;47.952;21.714;2023-04-10T01:00:02;100965.19;;;5.47;87.98
43071;BME280;36278;47.952;21.714;2023-04-10T01:02:29;100963.50;;;5.46;87.51
43071;BME280;36278;47.952;21.714;2023-04-10T01:04:55;100963.50;;;5.46;86.81
43071;BME280;36278;47.952;21.714;2023-04-10T01:12:54;100966.47;;;5.39;86.95
43071;BME280;36278;47.952;21.714;2023-04-10T01:15:25;100947.34;;;5.35;87.31
43071;BME280;36278;47.952;21.714;2023-04-10T01:20:32;100954.28;;;5.36;87.91
43071;BME280;36278;47.952;21.714;2023-04-10T01:23:11;100947.34;;;5.35;87.15
43071;BME280;36278;47.952;21.714;2023-04-10T01:25:58;100950.03;;;5.33;86.85
43071;BME280;36278;47.952;21.714;2023-04-10T01:31:12;100942.22;;;5.32;86.83
43071;BME280;36278;47.952;21.714;2023-04-10T01:33:43;100940.44;;;5.32;87.21
43071;BME280;36278;47.952;21.714;2023-04-10T01:36:11;100924.44;;;5.18;87.67
43071;BME280;36278;47.952;21.714;2023-04-10T01:38:43;100932.91;;;5.25;86.92
43071;BME280;36278;47.952;21.714;2023-04-10T01:41:10;100935.53;;;5.25;87.38
43071;BME280;36278;47.952;21.714;2023-04-10T01:43:39;100938.41;;;5.19;89.44
43071;BME280;36278;47.952;21.714;2023-04-10T01:46:06;100937.88;;;5.11;89.39
43071;BME280;36278;47.952;21.714;2023-04-10T01:48:31;100932.91;;;5.04;89.87
43071;BME280;36278;47.952;21.714;2023-04-10T01:50:59;100941.91;;;4.99;90.55
43071;BME280;36278;47.952;21.714;2023-04-10T01:53:26;100936.97;;;4.91;91.24
43071;BME280;36278;47.952;21.714;2023-04-10T01:55:52;100937.97;;;4.89;90.50
43071;BME280;36278;47.952;21.714;2023-04-10T01:58:18;100936.31;;;4.86;91.64
43071;BME280;36278;47.952;21.714;2023-04-10T02:00:44;100941.63;;;4.85;91.13
43071;BME280;36278;47.952;21.714;2023-04-10T02:03:10;100934.06;;;4.77;90.59
43071;BME280;36278;47.952;21.714;2023-04-10T02:06:17;100935.00;;;4.76;89.92
43071;BME280;36278;47.952;21.714;2023-04-10T02:08:58;100927.84;;;4.79;88.76
43071;BME280;36278;47.952;21.714;2023-04-10T02:11:35;100928.81;;;4.77;91.00
43071;BME280;36278;47.952;21.714;2023-04-10T02:14:04;100935.06;;;4.74;90.78
43071;BME280;36278;47.952;21.714;2023-04-10T02:16:32;100929.94;;;4.71;90.86
43071;BME280;36278;47.952;21.714;2023-04-10T02:19:00;100921.50;;;4.63;90.42
43071;BME280;36278;47.952;21.714;2023-04-10T02:21:26;100928.59;;;4.61;91.72
43071;BME280;36278;47.952;21.714;2023-04-10T02:23:55;100924.41;;;4.57;91.04
43071;BME280;36278;47.952;21.714;2023-04-10T02:26:21;100928.00;;;4.55;92.16
43071;BME280;36278;47.952;21.714;2023-04-10T02:28:48;100918.63;;;4.49;91.79
43071;BME280;36278;47.952;21.714;2023-04-10T02:31:13;100916.13;;;4.46;92.33
43071;BME280;36278;47.952;21.714;2023-04-10T02:33:39;100922.34;;;4.43;91.31
43071;BME280;36278;47.952;21.714;2023-04-10T02:36:05;100931.78;;;4.47;91.03
43071;BME280;36278;47.952;21.714;2023-04-10T02:38:31;100930.94;;;4.47;90.58
43071;BME280;36278;47.952;21.714;2023-04-10T02:40:56;100936.31;;;4.44;91.73
43071;BME280;36278;47.952;21.714;2023-04-10T02:43:22;100926.88;;;4.40;92.09
43071;BME280;36278;47.952;21.714;2023-04-10T02:45:47;100928.59;;;4.41;91.79
43071;BME280;36278;47.952;21.714;2023-04-10T02:48:12;100922.50;;;4.40;91.18
43071;BME280;36278;47.952;21.714;2023-04-10T02:50:38;100925.97;;;4.41;90.92
43071;BME280;36278;47.952;21.714;2023-04-10T02:53:04;100928.44;;;4.44;90.19
43071;BME280;36278;47.952;21.714;2023-04-10T02:55:29;100928.38;;;4.45;91.60
43071;BME280;36278;47.952;21.714;2023-04-10T02:57:55;100927.53;;;4.45;92.20
43071;BME280;36278;47.952;21.714;2023-04-10T03:00:21;100922.28;;;4.45;90.76
43071;BME280;36278;47.952;21.714;2023-04-10T03:02:47;100916.03;;;4.47;91.16
43071;BME280;36278;47.952;21.714;2023-04-10T03:05:12;100919.41;;;4.51;91.62
43071;BME280;36278;47.952;21.714;2023-04-10T03:07:38;100918.31;;;4.57;91.35
43071;BME280;36278;47.952;21.714;2023-04-10T03:10:03;100918.13;;;4.61;91.90
43071;BME280;36278;47.952;21.714;2023-04-10T03:12:29;100924.03;;;4.66;91.31
43071;BME280;36278;47.952;21.714;2023-04-10T03:14:54;100910.69;;;4.71;90.01
43071;BME280;36278;47.952;21.714;2023-04-10T03:17:20;100914.53;;;4.84;90.74
43071;BME280;36278;47.952;21.714;2023-04-10T03:19:45;100915.25;;;4.88;89.02
43071;BME280;36278;47.952;21.714;2023-04-10T03:22:11;100914.13;;;4.93;89.82
43071;BME280;36278;47.952;21.714;2023-04-10T03:24:36;100909.72;;;4.94;89.72
43071;BME280;36278;47.952;21.714;2023-04-10T03:27:05;100920.38;;;4.91;90.34
43071;BME280;36278;47.952;21.714;2023-04-10T03:29:30;100911.06;;;4.84;91.18
43071;BME280;36278;47.952;21.714;2023-04-10T03:31:56;100915.44;;;4.83;91.06
43071;BME280;36278;47.952;21.714;2023-04-10T03:34:21;100914.59;;;4.83;92.29
43071;BME280;36278;47.952;21.714;2023-04-10T03:36:46;100914.66;;;4.81;92.34
43071;BME280;36278;47.952;21.714;2023-04-10T03:39:12;100913.81;;;4.81;92.70
43071;BME280;36278;47.952;21.714;2023-04-10T03:41:38;100907.16;;;4.72;92.11
43071;BME280;36278;47.952;21.714;2023-04-10T03:44:03;100919.97;;;4.79;92.75
43071;BME280;36278;47.952;21.714;2023-04-10T03:46:28;100915.56;;;4.80;92.23
43071;BME280;36278;47.952;21.714;2023-04-10T03:48:54;100922.59;;;4.79;91.42
43071;BME280;36278;47.952;21.714;2023-04-10T03:51:19;100911.53;;;4.73;92.02
43071;BME280;36278;47.952;21.714;2023-04-10T03:53:45;100914.19;;;4.71;93.22
43071;BME280;36278;47.952;21.714;2023-04-10T03:56:11;100927.13;;;4.76;92.55
43071;BME280;36278;47.952;21.714;2023-04-10T03:58:36;100922.06;;;4.71;92.67
43071;BME280;36278;47.952;21.714;2023-04-10T04:01:02;100922.66;;;4.78;92.48
43071;BME280;36278;47.952;21.714;2023-04-10T04:03:27;100925.34;;;4.76;94.14
43071;BME280;36278;47.952;21.714;2023-04-10T04:05:53;100927.06;;;4.77;93.13
43071;BME280;36278;47.952;21.714;2023-04-10T04:08:18;100924.50;;;4.76;93.18
43071;BME280;36278;47.952;21.714;2023-04-10T04:10:44;100929.50;;;4.82;93.28
43071;BME280;36278;47.952;21.714;2023-04-10T04:13:09;100928.56;;;4.83;92.30
43071;BME280;36278;47.952;21.714;2023-04-10T04:15:35;100934.69;;;4.84;92.89
43071;BME280;36278;47.952;21.714;2023-04-10T04:18:00;100933.56;;;4.89;92.14
43071;BME280;36278;47.952;21.714;2023-04-10T04:20:26;100931.53;;;4.96;91.91
43071;BME280;36278;47.952;21.714;2023-04-10T04:22:51;100930.47;;;5.00;91.65
43071;BME280;36278;47.952;21.714;2023-04-10T04:25:17;100927.00;;;4.99;91.34
43071;BME280;36278;47.952;21.714;2023-04-10T04:27:43;100921.69;;;5.01;91.11
43071;BME280;36278;47.952;21.714;2023-04-10T04:30:09;100913.09;;;4.97;92.28
43071;BME280;36278;47.952;21.714;2023-04-10T04:32:35;100924.16;;;5.04;91.93
43071;BME280;36278;47.952;21.714;2023-04-10T04:35:01;100923.97;;;5.09;92.85
43071;BME280;36278;47.952;21.714;2023-04-10T04:37:26;100932.22;;;5.20;92.59
43071;BME280;36278;47.952;21.714;2023-04-10T04:39:52;100934.69;;;5.24;90.72
43071;BME280;36278;47.952;21.714;2023-04-10T04:42:17;100934.34;;;5.32;90.10
43071;BME280;36278;47.952;21.714;2023-04-10T04:44:43;100936.81;;;5.35;89.96
43071;BME280;36278;47.952;21.714;2023-04-10T04:47:08;100942.00;;;5.37;90.11
43071;BME280;36278;47.952;21.714;2023-04-10T04:49:33;100941.16;;;5.36;89.76
43071;BME280;36278;47.952;21.714;2023-04-10T04:51:59;100945.56;;;5.35;89.83
43071;BME280;36278;47.952;21.714;2023-04-10T04:54:24;100941.66;;;5.44;89.82
43071;BME280;36278;47.952;21.714;2023-04-10T04:56:50;100937.56;;;5.39;90.08
43071;BME280;36278;47.952;21.714;2023-04-10T04:59:15;100942.31;;;5.49;89.24
43071;BME280;36278;47.952;21.714;2023-04-10T05:01:41;100946.72;;;5.49;89.03
43071;BME280;36278;47.952;21.714;2023-04-10T05:04:06;100946.38;;;5.56;89.09
43071;BME280;36278;47.952;21.714;2023-04-10T05:06:32;100945.97;;;5.66;88.63
43071;BME280;36278;47.952;21.714;2023-04-10T05:08:57;100953.06;;;5.63;88.26
43071;BME280;36278;47.952;21.714;2023-04-10T05:11:23;100929.53;;;5.60;88.67
43071;BME280;36278;47.952;21.714;2023-04-10T05:13:48;100947.75;;;5.84;88.00
43071;BME280;36278;47.952;21.714;2023-04-10T05:16:13;100954.47;;;5.91;88.25
43071;BME280;36278;47.952;21.714;2023-04-10T05:18:40;100942.09;;;5.93;88.10
43071;BME280;36278;47.952;21.714;2023-04-10T05:21:06;100943.16;;;6.08;87.90
43071;BME280;36278;47.952;21.714;2023-04-10T05:23:31;100945.28;;;6.18;88.32
43071;BME280;36278;47.952;21.714;2023-04-10T05:25:56;100948.91;;;6.16;87.78
43071;BME280;36278;47.952;21.714;2023-04-10T05:28:22;100948.56;;;6.24;88.40
43071;BME280;36278;47.952;21.714;2023-04-10T05:30:47;100949.97;;;6.31;88.66
43071;BME280;36278;47.952;21.714;2023-04-10T05:33:13;100956.38;;;6.25;89.54
43071;BME280;36278;47.952;21.714;2023-04-10T05:35:38;100948.84;;;6.17;89.64
43071;BME280;36278;47.952;21.714;2023-04-10T05:38:04;100954.06;;;6.19;89.91
43071;BME280;36278;47.952;21.714;2023-04-10T05:40:30;100953.97;;;6.21;89.64
43071;BME280;36278;47.952;21.714;2023-04-10T05:42:55;100952.69;;;6.29;90.02
43071;BME280;36278;47.952;21.714;2023-04-10T05:45:21;100960.06;;;6.40;90.60
43071;BME280;36278;47.952;21.714;2023-04-10T05:47:47;100950.00;;;6.48;90.83
43071;BME280;36278;47.952;21.714;2023-04-10T05:50:12;100945.50;;;6.50;89.60
43071;BME280;36278;47.952;21.714;2023-04-10T05:52:38;100959.78;;;6.63;89.46
43071;BME280;36278;47.952;21.714;2023-04-10T05:55:03;100950.03;;;6.65;89.63
43071;BME280;36278;47.952;21.714;2023-04-10T05:57:30;100952.19;;;6.74;90.30
43071;BME280;36278;47.952;21.714;2023-04-10T05:59:56;100951.75;;;6.84;90.37
43071;BME280;36278;47.952;21.714;2023-04-10T06:02:21;100944.25;;;6.93;91.87
43071;BME280;36278;47.952;21.714;2023-04-10T06:04:47;100949.91;;;7.03;94.11
43071;BME280;36278;47.952;21.714;2023-04-10T06:07:12;100944.25;;;7.11;95.11
43071;BME280;36278;47.952;21.714;2023-04-10T06:09:38;100943.50;;;7.24;95.76
43071;BME280;36278;47.952;21.714;2023-04-10T06:12:03;100943.69;;;7.21;98.61
43071;BME280;36278;47.952;21.714;2023-04-10T06:14:28;100943.47;;;7.26;99.83
43071;BME280;36278;47.952;21.714;2023-04-10T06:16:54;100940.16;;;7.38;100.00
43071;BME280;36278;47.952;21.714;2023-04-10T06:19:19;100945.03;;;7.46;99.81
43071;BME280;36278;47.952;21.714;2023-04-10T06:21:45;100945.66;;;7.51;100.00
43071;BME280;36278;47.952;21.714;2023-04-10T06:24:11;100946.50;;;7.51;100.00
43071;BME280;36278;47.952;21.714;2023-04-10T06:26:38;100954.69;;;7.63;100.00
43071;BME280;36278;47.952;21.714;2023-04-10T06:29:03;100946.97;;;7.59;100.00
43071;BME280;36278;47.952;21.714;2023-04-10T06:31:32;100950.34;;;7.62;100.00
43071;BME280;36278;47.952;21.714;2023-04-10T06:33:58;100960.81;;;7.63;100.00
43071;BME280;36278;47.952;21.714;2023-04-10T06:36:24;100951.66;;;7.70;100.00
43071;BME280;36278;47.952;21.714;2023-04-10T06:38:50;100950.72;;;7.71;100.00
43071;BME280;36278;47.952;21.714;2023-04-10T06:41:15;100938.47;;;7.70;100.00
43071;BME280;36278;47.952;21.714;2023-04-10T06:43:41;100954.53;;;7.81;100.00
43071;BME280;36278;47.952;21.714;2023-04-10T06:46:06;100932.09;;;7.74;100.00
43071;BME280;36278;47.952;21.714;2023-04-10T06:48:32;100942.56;;;7.76;100.00
43071;BME280;36278;47.952;21.714;2023-04-10T06:50:58;100939.50;;;7.68;100.00
43071;BME280;36278;47.952;21.714;2023-04-10T06:53:25;100945.53;;;7.70;100.00
43071;BME280;36278;47.952;21.714;2023-04-10T06:55:51;100945.28;;;7.74;100.00
43071;BME280;36278;47.952;21.714;2023-04-10T06:58:16;100946.06;;;7.76;100.00
43071;BME280;36278;47.952;21.714;2023-04-10T07:00:42;100951.16;;;7.79;100.00
43071;BME280;36278;47.952;21.714;2023-04-10T07:03:07;100943.84;;;7.84;100.00
43071;BME280;36278;47.952;21.714;2023-04-10T07:05:33;100956.34;;;7.97;100.00
43071;BME280;36278;47.952;21.714;2023-04-10T07:07:58;100949.91;;;8.02;100.00
43071;BME280;36278;47.952;21.714;2023-04-10T07:10:24;100949.38;;;8.11;100.00
43071;BME280;36278;47.952;21.714;2023-04-10T07:12:50;100943.50;;;8.22;100.00
43071;BME280;36278;47.952;21.714;2023-04-10T07:15:15;100947.69;;;8.26;100.00
43071;BME280;36278;47.952;21.714;2023-04-10T07:17:41;100946.75;;;8.27;100.00
43071;BME280;36278;47.952;21.714;2023-04-10T07:20:07;100955.28;;;8.32;100.00
43071;BME280;36278;47.952;21.714;2023-04-10T07:22:33;100948.28;;;8.31;100.00
43071;BME280;36278;47.952;21.714;2023-04-10T07:24:58;100940.00;;;8.22;100.00
43071;BME280;36278;47.952;21.714;2023-04-10T07:27:24;100945.72;;;8.30;100.00
43071;BME280;36278;47.952;21.714;2023-04-10T07:29:51;100949.16;;;8.32;100.00
43071;BME280;36278;47.952;21.714;2023-04-10T07:32:16;100954.78;;;8.41;100.00
43071;BME280;36278;47.952;21.714;2023-04-10T07:34:41;100949.41;;;8.43;100.00
43071;BME280;36278;47.952;21.714;2023-04-10T07:37:07;100948.38;;;8.46;100.00
43071;BME280;36278;47.952;21.714;2023-04-10T07:39:32;100943.19;;;8.44;100.00
43071;BME280;36278;47.952;21.714;2023-04-10T07:41:58;100947.00;;;8.54;100.00
43071;BME280;36278;47.952;21.714;2023-04-10T07:44:25;100941.72;;;8.54;100.00
43071;BME280;36278;47.952;21.714;2023-04-10T07:46:51;100950.34;;;8.42;100.00
43071;BME280;36278;47.952;21.714;2023-04-10T07:49:17;100946.13;;;8.39;100.00
43071;BME280;36278;47.952;21.714;2023-04-10T07:51:42;100943.63;;;8.36;100.00
43071;BME280;36278;47.952;21.714;2023-04-10T07:54:08;100941.97;;;8.34;100.00
43071;BME280;36278;47.952;21.714;2023-04-10T07:56:33;100944.13;;;8.27;100.00
43071;BME280;36278;47.952;21.714;2023-04-10T07:58:59;100938.41;;;8.19;100.00
43071;BME280;36278;47.952;21.714;2023-04-10T08:01:26;100933.41;;;8.14;100.00
43071;BME280;36278;47.952;21.714;2023-04-10T08:03:51;100936.91;;;8.15;100.00
43071;BME280;36278;47.952;21.714;2023-04-10T08:06:17;100940.88;;;8.22;100.00
43071;BME280;36278;47.952;21.714;2023-04-10T08:08:43;100937.97;;;8.27;100.00
43071;BME280;36278;47.952;21.714;2023-04-10T08:11:27;100936.81;;;8.17;100.00
43071;BME280;36278;47.952;21.714;2023-04-10T08:13:58;100946.19;;;8.06;100.00
43071;BME280;36278;47.952;21.714;2023-04-10T08:16:30;100949.91;;;8.02;100.00
43071;BME280;36278;47.952;21.714;2023-04-10T08:18:57;100953.13;;;7.92;100.00
43071;BME280;36278;47.952;21.714;2023-04-10T08:21:24;100943.84;;;7.84;100.00
43071;BME280;36278;47.952;21.714;2023-04-10T08:23:52;100945.38;;;7.88;100.00
43071;BME280;36278;47.952;21.714;2023-04-10T08:26:17;100945.03;;;7.95;100.00
43071;BME280;36278;47.952;21.714;2023-04-10T08:28:46;100931.19;;;7.91;100.00
43071;BME280;36278;47.952;21.714;2023-04-10T08:31:13;100935.09;;;8.00;100.00
43071;BME280;36278;47.952;21.714;2023-04-10T08:33:38;100938.69;;;7.99;100.00
43071;BME280;36278;47.952;21.714;2023-04-10T08:36:04;100943.78;;;8.02;100.00
43071;BME280;36278;47.952;21.714;2023-04-10T08:38:30;100929.97;;;8.12;100.00
43071;BME280;36278;47.952;21.714;2023-04-10T08:40:56;100930.50;;;8.19;100.00
43071;BME280;36278;47.952;21.714;2023-04-10T08:43:22;100928.09;;;8.30;100.00
43071;BME280;36278;47.952;21.714;2023-04-10T08:45:47;100919.00;;;8.20;100.00
43071;BME280;36278;47.952;21.714;2023-04-10T08:48:15;100928.63;;;8.37;100.00
43071;BME280;36278;47.952;21.714;2023-04-10T08:50:44;100924.13;;;8.39;100.00
43071;BME280;36278;47.952;21.714;2023-04-10T08:53:11;100921.38;;;8.56;100.00
43071;BME280;36278;47.952;21.714;2023-04-10T08:55:41;100921.72;;;8.19;100.00
43071;BME280;36278;47.952;21.714;2023-04-10T08:58:08;100917.22;;;8.05;100.00
43071;BME280;36278;47.952;21.714;2023-04-10T09:00:35;100913.38;;;8.10;100.00
43071;BME280;36278;47.952;21.714;2023-04-10T09:03:11;100922.06;;;8.12;100.00
43071;BME280;36278;47.952;21.714;2023-04-10T09:05:39;100915.06;;;8.27;100.00
43071;BME280;36278;47.952;21.714;2023-04-10T09:08:06;100918.22;;;8.34;100.00
43071;BME280;36278;47.952;21.714;2023-04-10T09:10:31;100917.63;;;8.29;100.00
43071;BME280;36278;47.952;21.714;2023-04-10T09:12:57;100923.44;;;8.35;100.00
43071;BME280;36278;47.952;21.714;2023-04-10T09:15:23;100917.72;;;8.27;100.00
43071;BME280;36278;47.952;21.714;2023-04-10T09:17:56;100919.50;;;8.27;100.00
43071;BME280;36278;47.952;21.714;2023-04-10T09:20:23;100910.66;;;8.28;100.00
43071;BME280;36278;47.952;21.714;2023-04-10T09:22:48;100906.75;;;8.35;100.00
43071;BME280;36278;47.952;21.714;2023-04-10T09:28:05;100902.63;;;8.29;100.00
43071;BME280;36278;47.952;21.714;2023-04-10T09:30:40;100910.66;;;8.12;100.00
43071;BME280;36278;47.952;21.714;2023-04-10T09:33:25;100902.81;;;8.26;100.00
43071;BME280;36278;47.952;21.714;2023-04-10T09:35:52;100895.09;;;8.23;100.00
43071;BME280;36278;47.952;21.714;2023-04-10T09:38:20;100898.31;;;8.28;100.00
43071;BME280;36278;47.952;21.714;2023-04-10T09:40:46;100897.97;;;8.19;100.00
43071;BME280;36278;47.952;21.714;2023-04-10T09:43:25;100904.81;;;8.23;100.00
43071;BME280;36278;47.952;21.714;2023-04-10T09:45:53;100898.75;;;8.36;100.00
43071;BME280;36278;47.952;21.714;2023-04-10T09:48:20;100903.91;;;8.54;100.00
43071;BME280;36278;47.952;21.714;2023-04-10T09:50:46;100889.25;;;8.64;100.00
43071;BME280;36278;47.952;21.714;2023-04-10T09:53:17;100882.63;;;8.71;100.00
43071;BME280;36278;47.952;21.714;2023-04-10T09:55:47;100888.06;;;8.84;100.00
43071;BME280;36278;47.952;21.714;2023-04-10T09:58:13;100887.88;;;8.87;100.00
43071;BME280;36278;47.952;21.714;2023-04-10T10:00:45;100883.53;;;8.72;100.00
43071;BME280;36278;47.952;21.714;2023-04-10T10:03:13;100876.09;;;8.62;100.00
43071;BME280;36278;47.952;21.714;2023-04-10T10:05:42;100874.94;;;8.52;100.00
43071;BME280;36278;47.952;21.714;2023-04-10T10:08:12;100884.88;;;8.63;100.00
43071;BME280;36278;47.952;21.714;2023-04-10T10:10:43;100877.84;;;8.78;100.00
43071;BME280;36278;47.952;21.714;2023-04-10T10:13:14;100878.13;;;8.73;100.00
43071;BME280;36278;47.952;21.714;2023-04-10T10:15:50;100872.75;;;8.75;100.00
43071;BME280;36278;47.952;21.714;2023-04-10T10:18:27;100862.88;;;8.92;100.00
43071;BME280;36278;47.952;21.714;2023-04-10T10:20:55;100860.78;;;8.83;100.00
43071;BME280;36278;47.952;21.714;2023-04-10T10:23:22;100858.44;;;8.93;100.00
43071;BME280;36278;47.952;21.714;2023-04-10T10:25:48;100856.22;;;9.15;100.00
43071;BME280;36278;47.952;21.714;2023-04-10T10:28:15;100847.97;;;9.34;100.00
43071;BME280;36278;47.952;21.714;2023-04-10T10:30:43;100854.50;;;9.14;100.00
43071;BME280;36278;47.952;21.714;2023-04-10T10:33:10;100845.53;;;9.17;100.00
43071;BME280;36278;47.952;21.714;2023-04-10T10:35:36;100848.47;;;9.26;100.00
43071;BME280;36278;47.952;21.714;2023-04-10T10:38:05;100849.31;;;9.41;100.00
43071;BME280;36278;47.952;21.714;2023-04-10T10:40:37;100850.84;;;9.45;100.00
43071;BME280;36278;47.952;21.714;2023-04-10T10:46:36;100844.19;;;9.52;100.00
43071;BME280;36278;47.952;21.714;2023-04-10T10:48:54;100832.59;;;9.55;100.00
43071;BME280;36278;47.952;21.714;2023-04-10T10:51:20;100848.63;;;9.66;100.00
43071;BME280;36278;47.952;21.714;2023-04-10T10:53:46;100848.81;;;9.63;100.00
43071;BME280;36278;47.952;21.714;2023-04-10T10:58:54;100841.88;;;9.75;100.00
43071;BME280;36278;47.952;21.714;2023-04-10T11:01:22;100844.19;;;9.52;100.00
43071;BME280;36278;47.952;21.714;2023-04-10T11:03:48;100840.63;;;9.53;100.00
43071;BME280;36278;47.952;21.714;2023-04-10T11:06:15;100841.72;;;9.64;100.00
43071;BME280;36278;47.952;21.714;2023-04-10T11:08:50;100831.91;;;9.51;100.00
43071;BME280;36278;47.952;21.714;2023-04-10T11:11:21;100839.84;;;9.51;100.00
43071;BME280;36278;47.952;21.714;2023-04-10T11:19:08;100836.69;;;9.73;100.00
43071;BME280;36278;47.952;21.714;2023-04-10T11:22:01;100836.34;;;9.65;100.00
43071;BME280;36278;47.952;21.714;2023-04-10T11:24:28;100822.84;;;9.55;100.00
43071;BME280;36278;47.952;21.714;2023-04-10T11:26:54;100833.91;;;9.62;100.00
43071;BME280;36278;47.952;21.714;2023-04-10T11:31:59;100826.81;;;9.63;100.00
43071;BME280;36278;47.952;21.714;2023-04-10T11:34:26;100822.47;;;9.62;100.00
43071;BME280;36278;47.952;21.714;2023-04-10T11:36:52;100822.47;;;9.62;100.00
43071;BME280;36278;47.952;21.714;2023-04-10T11:39:18;100821.31;;;9.66;100.00
43071;BME280;36278;47.952;21.714;2023-04-10T11:41:48;100818.78;;;9.64;100.00
43071;BME280;36278;47.952;21.714;2023-04-10T11:46:52;100821.34;;;9.51;100.00
43071;BME280;36278;47.952;21.714;2023-04-10T11:49:22;100809.53;;;9.43;100.00
43071;BME280;36278;47.952;21.714;2023-04-10T11:51:50;100812.88;;;9.46;100.00
43071;BME280;36278;47.952;21.714;2023-04-10T11:54:17;100808.69;;;9.57;100.00
43071;BME280;36278;47.952;21.714;2023-04-10T11:59:22;100794.94;;;9.78;100.00
43071;BME280;36278;47.952;21.714;2023-04-10T12:01:49;100797.81;;;9.88;100.00
43071;BME280;36278;47.952;21.714;2023-04-10T12:04:19;100789.56;;;9.93;100.00
43071;BME280;36278;47.952;21.714;2023-04-10T12:06:49;100786.75;;;9.96;100.00
43071;BME280;36278;47.952;21.714;2023-04-10T12:09:16;100788.44;;;9.97;100.00
43071;BME280;36278;47.952;21.714;2023-04-10T12:12:00;100782.94;;;10.00;100.00
43071;BME280;36278;47.952;21.714;2023-04-10T12:14:30;100772.22;;;10.01;100.00
43071;BME280;36278;47.952;21.714;2023-04-10T12:16:57;100776.19;;;10.08;100.00
43071;BME280;36278;47.952;21.714;2023-04-10T12:19:23;100772.00;;;10.19;100.00
43071;BME280;36278;47.952;21.714;2023-04-10T12:21:49;100764.50;;;10.25;100.00
43071;BME280;36278;47.952;21.714;2023-04-10T12:27:25;100761.69;;;10.54;100.00
43071;BME280;36278;47.952;21.714;2023-04-10T12:29:52;100751.19;;;10.65;100.00
43071;BME280;36278;47.952;21.714;2023-04-10T12:32:18;100752.03;;;10.91;100.00
43071;BME280;36278;47.952;21.714;2023-04-10T12:34:51;100740.38;;;10.93;100.00
43071;BME280;36278;47.952;21.714;2023-04-10T12:37:18;100748.81;;;11.24;100.00
43071;BME280;36278;47.952;21.714;2023-04-10T12:39:43;100738.44;;;11.45;100.00
43071;BME280;36278;47.952;21.714;2023-04-10T12:42:13;100741.69;;;11.61;100.00
43071;BME280;36278;47.952;21.714;2023-04-10T12:44:50;100737.97;;;11.88;100.00
43071;BME280;36278;47.952;21.714;2023-04-10T12:47:15;100727.69;;;12.07;99.27
43071;BME280;36278;47.952;21.714;2023-04-10T12:49:41;100718.84;;;12.53;97.15
43071;BME280;36278;47.952;21.714;2023-04-10T12:52:06;100719.00;;;12.62;94.37
43071;BME280;36278;47.952;21.714;2023-04-10T12:54:33;100726.09;;;12.62;95.20
43071;BME280;36278;47.952;21.714;2023-04-10T12:57:00;100717.72;;;12.33;97.07
43071;BME280;36278;47.952;21.714;2023-04-10T12:59:28;100716.59;;;12.71;99.12
43071;BME280;36278;47.952;21.714;2023-04-10T13:01:54;100705.44;;;13.44;93.63
43071;BME280;36278;47.952;21.714;2023-04-10T13:04:20;100701.47;;;13.70;89.66
43071;BME280;36278;47.952;21.714;2023-04-10T13:06:47;100706.09;;;13.57;92.75
43071;BME280;36278;47.952;21.714;2023-04-10T13:09:13;100704.41;;;13.56;93.00
43071;BME280;36278;47.952;21.714;2023-04-10T13:11:40;100701.69;;;13.67;93.18
43071;BME280;36278;47.952;21.714;2023-04-10T13:14:06;100693.72;;;13.67;89.83
43071;BME280;36278;47.952;21.714;2023-04-10T13:16:31;100694.56;;;13.68;92.21
43071;BME280;36278;47.952;21.714;2023-04-10T13:18:56;100681.66;;;12.98;95.41
43071;BME280;36278;47.952;21.714;2023-04-10T13:21:22;100676.69;;;12.93;97.22